Time;durP1;ratioP1;P1;durP2;ratioP2;P2;SDS_P1;SDS_P2;PMS_P1;PMS_P2;Temp;Humidity;BMP_temperature;BMP_pressure;BME280_temperature;BME280_humidity;BME280_pressure;Samples;Min_cycle;Max_cycle;Signal;HPM_P1;HPM_P2
2021/05/28 00:00:16;;;;;;;12.13;5.05;;;14.70;75.70;;;;;;5057305;28;20071;-59
2021/05/28 00:02:42;;;;;;;12.98;5.20;;;14.70;76.40;;;;;;5064163;28;20124;-59
2021/05/28 00:05:08;;;;;;;13.13;4.72;;;14.70;75.90;;;;;;5063961;28;20523;-59
2021/05/28 00:07:34;;;;;;;11.95;4.30;;;14.70;75.90;;;;;;5068712;28;20063;-59
2021/05/28 00:10:00;;;;;;;13.73;4.22;;;14.70;75.90;;;;;;5060751;28;20072;-59
2021/05/28 00:12:27;;;;;;;12.30;4.15;;;14.70;76.00;;;;;;5062306;28;20056;-59
2021/05/28 00:14:52;;;;;;;12.73;4.13;;;14.70;76.00;;;;;;5075092;28;20392;-59
2021/05/28 00:17:18;;;;;;;12.63;4.10;;;14.70;76.10;;;;;;5061541;28;20086;-59
2021/05/28 00:19:44;;;;;;;16.10;4.28;;;14.60;76.10;;;;;;5058048;28;20058;-59
2021/05/28 00:22:09;;;;;;;10.52;4.55;;;14.70;76.30;;;;;;5070474;28;20028;-59
2021/05/28 00:24:35;;;;;;;21.58;5.60;;;14.60;76.40;;;;;;5069793;28;20492;-60
2021/05/28 00:27:00;;;;;;;13.88;4.20;;;14.60;76.60;;;;;;5070516;28;20060;-59
2021/05/28 00:29:26;;;;;;;6.80;3.22;;;14.60;76.90;;;;;;5062695;28;20036;-59
2021/05/28 00:31:52;;;;;;;11.23;4.43;;;14.60;76.90;;;;;;5062202;28;20033;-59
2021/05/28 00:34:17;;;;;;;10.15;3.78;;;14.50;77.00;;;;;;5056085;28;20125;-59
2021/05/28 00:36:43;;;;;;;8.27;4.03;;;14.50;77.20;;;;;;5075206;28;20035;-59
2021/05/28 00:39:09;;;;;;;15.52;3.80;;;14.50;77.20;;;;;;5073366;28;20035;-59
2021/05/28 00:41:35;;;;;;;15.18;4.63;;;14.50;77.10;;;;;;5059036;28;20047;-59
2021/05/28 00:44:01;;;;;;;10.38;4.32;;;14.40;77.00;;;;;;5062637;28;20058;-59
2021/05/28 00:46:27;;;;;;;12.27;5.00;;;14.50;77.20;;;;;;5057859;28;20028;-59
2021/05/28 00:48:56;;;;;;;16.33;4.75;;;14.40;77.20;;;;;;5070560;28;20032;-59
2021/05/28 00:51:22;;;;;;;13.45;5.47;;;14.40;77.40;;;;;;5060646;28;20045;-59
2021/05/28 00:53:48;;;;;;;8.35;4.05;;;14.40;77.40;;;;;;5064293;28;20052;-59
2021/05/28 00:56:15;;;;;;;9.52;4.78;;;14.40;77.30;;;;;;5057627;28;20036;-59
2021/05/28 00:58:41;;;;;;;12.70;5.25;;;14.40;77.40;;;;;;5067161;28;20021;-59
2021/05/28 01:01:07;;;;;;;9.75;3.92;;;14.40;77.40;;;;;;5055630;28;20032;-59
2021/05/28 01:03:33;;;;;;;9.48;3.50;;;14.40;77.40;;;;;;5057402;28;20365;-59
2021/05/28 01:05:59;;;;;;;6.88;2.72;;;14.30;77.30;;;;;;5056394;28;20036;-59
2021/05/28 01:08:25;;;;;;;8.23;2.80;;;14.30;77.40;;;;;;5060107;28;20032;-60
2021/05/28 01:10:50;;;;;;;12.15;4.05;;;14.40;77.20;;;;;;5064124;28;20051;-59
2021/05/28 01:13:16;;;;;;;11.63;3.42;;;14.30;77.00;;;;;;5056450;28;20081;-59
2021/05/28 01:15:42;;;;;;;12.55;3.25;;;14.30;77.00;;;;;;5063704;28;20075;-59
2021/05/28 01:18:09;;;;;;;9.30;3.22;;;14.30;77.00;;;;;;5059153;28;20029;-59
2021/05/28 01:20:35;;;;;;;13.60;3.53;;;14.30;77.10;;;;;;5061929;28;20029;-59
2021/05/28 01:23:03;;;;;;;13.77;4.30;;;14.30;77.20;;;;;;5067305;28;20025;-59
2021/05/28 01:25:30;;;;;;;12.90;4.85;;;14.30;77.40;;;;;;5073903;28;20027;-59
2021/05/28 01:27:56;;;;;;;10.68;3.30;;;14.30;77.40;;;;;;5069393;28;20025;-59
2021/05/28 01:30:24;;;;;;;9.50;4.40;;;14.20;77.30;;;;;;5073065;28;20040;-59
2021/05/28 01:32:50;;;;;;;4.90;2.85;;;14.20;78.00;;;;;;5071454;28;20044;-59
2021/05/28 01:35:16;;;;;;;10.93;3.58;;;14.30;77.40;;;;;;5073312;28;20036;-59
2021/05/28 01:37:43;;;;;;;10.65;4.55;;;14.20;77.50;;;;;;5072202;28;20383;-59
2021/05/28 01:40:10;;;;;;;13.02;4.40;;;14.20;77.60;;;;;;5066524;28;20033;-59
2021/05/28 01:42:36;;;;;;;19.80;4.35;;;14.20;77.60;;;;;;5056233;28;20494;-59
2021/05/28 01:45:03;;;;;;;12.95;5.50;;;14.20;77.70;;;;;;5055214;28;20032;-59
2021/05/28 01:47:30;;;;;;;7.35;3.05;;;14.10;77.70;;;;;;5065965;28;20039;-59
2021/05/28 01:49:56;;;;;;;8.77;3.60;;;14.20;77.90;;;;;;5059584;28;20048;-60
2021/05/28 01:52:23;;;;;;;12.07;4.22;;;14.10;77.80;;;;;;5072541;28;20033;-59
2021/05/28 01:54:49;;;;;;;11.95;5.07;;;14.10;77.90;;;;;;5072272;28;20086;-59
2021/05/28 01:57:17;;;;;;;9.38;3.08;;;14.10;78.00;;;;;;5071759;28;20032;-59
2021/05/28 01:59:45;;;;;;;13.20;4.05;;;14.00;77.90;;;;;;5059736;28;20464;-59
2021/05/28 02:02:11;;;;;;;14.07;3.22;;;14.00;77.90;;;;;;5060454;28;20494;-59
2021/05/28 02:04:36;;;;;;;9.77;3.60;;;14.00;78.00;;;;;;5067039;28;20040;-59
2021/05/28 02:07:03;;;;;;;11.82;4.00;;;14.00;78.00;;;;;;5072970;28;20081;-58
2021/05/28 02:09:30;;;;;;;9.77;4.32;;;14.00;78.10;;;;;;5070613;28;20021;-59
2021/05/28 02:11:57;;;;;;;7.03;2.85;;;14.00;78.20;;;;;;5071295;28;20055;-59
2021/05/28 02:14:26;;;;;;;13.85;4.05;;;14.00;78.20;;;;;;5052481;28;20029;-59
2021/05/28 02:16:52;;;;;;;7.93;3.70;;;13.90;78.20;;;;;;5056839;28;20071;-59
2021/05/28 02:19:20;;;;;;;8.52;3.28;;;13.90;78.80;;;;;;5053212;28;20060;-59
2021/05/28 02:21:45;;;;;;;5.15;2.28;;;13.90;78.20;;;;;;5054332;28;20033;-59
2021/05/28 02:24:14;;;;;;;5.20;3.08;;;13.90;78.20;;;;;;5056279;28;20091;-59
2021/05/28 02:26:40;;;;;;;4.80;2.15;;;13.90;78.20;;;;;;5053871;28;20029;-60
2021/05/28 02:29:06;;;;;;;10.15;3.92;;;13.80;78.20;;;;;;5056006;28;20483;-59
2021/05/28 02:31:32;;;;;;;12.85;4.80;;;13.80;78.30;;;;;;5066420;28;20072;-59
2021/05/28 02:33:58;;;;;;;10.80;4.97;;;13.90;78.40;;;;;;5057778;28;20060;-58
2021/05/28 02:36:23;;;;;;;10.02;5.20;;;13.90;78.50;;;;;;5060090;28;20024;-59
2021/05/28 02:38:49;;;;;;;17.20;5.35;;;13.80;78.50;;;;;;5053123;28;20380;-59
2021/05/28 02:41:14;;;;;;;10.15;4.22;;;13.80;78.50;;;;;;5052500;28;20629;-59
2021/05/28 02:43:40;;;;;;;13.07;5.00;;;13.90;78.50;;;;;;5052016;28;20469;-58
2021/05/28 02:46:06;;;;;;;13.40;5.60;;;13.80;78.50;;;;;;5060594;28;20043;-59
2021/05/28 02:48:31;;;;;;;12.27;4.55;;;13.80;78.50;;;;;;5058503;28;20020;-59
2021/05/28 02:50:57;;;;;;;16.48;4.90;;;13.90;78.50;;;;;;5071073;28;20044;-59
2021/05/28 02:53:22;;;;;;;15.70;5.80;;;13.90;78.60;;;;;;5071493;28;20025;-59
2021/05/28 02:55:48;;;;;;;15.30;5.43;;;13.90;78.70;;;;;;5061076;28;20021;-58
2021/05/28 02:58:14;;;;;;;14.80;4.78;;;13.90;78.70;;;;;;5062297;28;20723;-59
2021/05/28 03:00:40;;;;;;;13.30;4.78;;;13.90;78.70;;;;;;5060844;28;20032;-59
2021/05/28 03:03:06;;;;;;;11.13;4.72;;;13.90;78.60;;;;;;5064689;28;20564;-59
2021/05/28 03:05:31;;;;;;;12.13;4.80;;;13.90;78.50;;;;;;5062333;28;20108;-59
2021/05/28 03:07:57;;;;;;;12.52;4.97;;;13.90;78.50;;;;;;5061406;28;20025;-59
2021/05/28 03:10:23;;;;;;;12.85;4.65;;;13.90;78.40;;;;;;5069498;28;20481;-58
2021/05/28 03:12:48;;;;;;;13.60;5.30;;;13.90;78.30;;;;;;5061688;28;20091;-58
2021/05/28 03:15:14;;;;;;;11.68;4.65;;;13.90;78.10;;;;;;5053340;28;20040;-59
2021/05/28 03:17:43;;;;;;;12.52;4.57;;;13.90;77.90;;;;;;5064462;28;20112;-59
2021/05/28 03:20:26;;;;;;;14.95;5.15;;;13.90;77.80;;;;;;5064978;28;20123;-58
2021/05/28 03:22:52;;;;;;;11.43;4.80;;;13.90;77.60;;;;;;5061463;28;20021;-59
2021/05/28 03:25:18;;;;;;;11.80;4.53;;;13.90;77.30;;;;;;5053277;28;20025;-59
2021/05/28 03:27:47;;;;;;;8.07;4.35;;;13.90;77.00;;;;;;5056865;28;20075;-59
2021/05/28 03:30:14;;;;;;;8.10;3.63;;;13.90;76.80;;;;;;5055944;28;20049;-58
2021/05/28 03:32:40;;;;;;;11.98;4.35;;;13.90;76.60;;;;;;5074817;28;20020;-59
2021/05/28 03:35:06;;;;;;;9.40;3.83;;;13.80;76.60;;;;;;5075677;28;20454;-59
2021/05/28 03:37:32;;;;;;;10.13;4.22;;;13.80;76.60;;;;;;5072663;28;20454;-59
2021/05/28 03:39:59;;;;;;;8.65;3.80;;;13.90;76.60;;;;;;5072834;28;20117;-59
2021/05/28 03:42:25;;;;;;;14.35;4.50;;;13.80;76.50;;;;;;5072605;28;20094;-59
2021/05/28 03:44:51;;;;;;;9.15;3.97;;;13.80;76.50;;;;;;5069051;28;20483;-59
2021/05/28 03:47:18;;;;;;;8.50;3.72;;;13.80;76.50;;;;;;5071911;28;20166;-59
2021/05/28 03:49:44;;;;;;;9.07;3.40;;;13.70;76.40;;;;;;5066834;28;20071;-59
2021/05/28 03:52:10;;;;;;;11.18;3.28;;;13.70;76.40;;;;;;5064043;28;20490;-59
2021/05/28 03:54:36;;;;;;;7.18;3.65;;;13.70;76.40;;;;;;5072333;28;20031;-59
2021/05/28 03:57:02;;;;;;;10.50;4.20;;;13.60;76.40;;;;;;5059670;28;20041;-59
2021/05/28 03:59:28;;;;;;;8.05;3.10;;;13.60;76.50;;;;;;5056113;28;20032;-59
2021/05/28 04:01:53;;;;;;;12.18;4.18;;;13.60;76.50;;;;;;5070324;28;20020;-59
2021/05/28 04:04:19;;;;;;;8.93;3.47;;;13.60;76.60;;;;;;5060674;28;20551;-59
2021/05/28 04:06:44;;;;;;;11.10;3.65;;;13.50;76.70;;;;;;5061357;28;20050;-59
2021/05/28 04:09:10;;;;;;;9.85;3.63;;;13.50;76.80;;;;;;5072096;28;20027;-59
2021/05/28 04:11:36;;;;;;;9.15;3.35;;;13.40;76.80;;;;;;5074118;28;20063;-59
2021/05/28 04:14:02;;;;;;;6.72;3.53;;;13.40;76.90;;;;;;5055166;28;20380;-59
2021/05/28 04:16:28;;;;;;;8.23;4.18;;;13.40;77.00;;;;;;5055700;28;20055;-59
2021/05/28 04:18:54;;;;;;;10.10;3.45;;;13.40;77.20;;;;;;5053869;28;20112;-59
2021/05/28 04:21:20;;;;;;;13.23;3.75;;;13.30;77.30;;;;;;5055331;28;20035;-59
2021/05/28 04:23:45;;;;;;;9.95;4.20;;;13.30;77.50;;;;;;5070196;28;20388;-59
2021/05/28 04:26:11;;;;;;;10.10;4.00;;;13.30;77.60;;;;;;5066737;28;20079;-59
2021/05/28 04:28:37;;;;;;;12.05;4.15;;;13.20;77.70;;;;;;5055483;28;20087;-58
2021/05/28 04:31:03;;;;;;;10.27;3.63;;;13.20;77.90;;;;;;5059885;28;20431;-59
2021/05/28 04:33:28;;;;;;;11.60;3.55;;;13.20;77.90;;;;;;5074062;28;20063;-59
2021/05/28 04:35:54;;;;;;;10.48;4.15;;;13.20;78.00;;;;;;5056868;28;20508;-58
2021/05/28 04:38:20;;;;;;;20.58;5.55;;;13.20;78.00;;;;;;5064292;28;20071;-59
2021/05/28 04:40:47;;;;;;;9.30;3.97;;;13.10;78.20;;;;;;5059761;28;20041;-58
2021/05/28 04:43:13;;;;;;;8.27;3.92;;;13.10;78.20;;;;;;5066281;28;20029;-59
2021/05/28 04:45:39;;;;;;;10.35;4.22;;;13.10;78.30;;;;;;5054965;28;20587;-59
2021/05/28 04:48:05;;;;;;;11.27;4.38;;;13.10;78.50;;;;;;5053009;28;20480;-59
2021/05/28 04:50:31;;;;;;;8.63;3.53;;;13.10;78.70;;;;;;5064664;28;20086;-58
2021/05/28 04:53:00;;;;;;;11.02;4.60;;;13.10;78.80;;;;;;5054975;28;20033;-59
2021/05/28 04:55:27;;;;;;;6.15;2.42;;;13.10;78.80;;;;;;5054880;28;20037;-59
2021/05/28 04:57:53;;;;;;;7.70;2.67;;;13.10;78.50;;;;;;5057039;28;20021;-59
2021/05/28 05:00:20;;;;;;;7.00;2.85;;;13.10;78.50;;;;;;5063580;28;20040;-59
2021/05/28 05:02:46;;;;;;;12.48;4.15;;;13.10;78.80;;;;;;5066758;28;20480;-59
2021/05/28 05:05:13;;;;;;;6.90;1.83;;;13.10;78.90;;;;;;5066193;28;20033;-59
2021/05/28 05:07:39;;;;;;;9.63;3.97;;;13.10;78.80;;;;;;5053939;28;20033;-58
2021/05/28 05:10:05;;;;;;;8.18;4.28;;;13.10;79.20;;;;;;5071059;28;20043;-60
2021/05/28 05:12:31;;;;;;;9.93;3.75;;;13.10;79.50;;;;;;5061475;28;20395;-59
2021/05/28 05:14:57;;;;;;;8.63;3.40;;;13.10;79.50;;;;;;5072410;28;20033;-59
2021/05/28 05:17:23;;;;;;;14.05;4.03;;;13.10;79.60;;;;;;5062406;28;20024;-59
2021/05/28 05:19:48;;;;;;;14.55;3.60;;;13.10;79.70;;;;;;5059794;28;20025;-60
2021/05/28 05:22:14;;;;;;;10.85;5.40;;;13.10;79.60;;;;;;5055085;28;20130;-59
2021/05/28 05:24:40;;;;;;;12.02;4.18;;;13.10;79.80;;;;;;5068952;28;20024;-59
2021/05/28 05:27:06;;;;;;;10.60;4.28;;;13.20;79.70;;;;;;5063919;28;20025;-59
2021/05/28 05:29:31;;;;;;;8.95;4.47;;;13.10;79.90;;;;;;5069148;28;20048;-59
2021/05/28 05:31:57;;;;;;;13.55;4.70;;;13.20;79.90;;;;;;5068808;28;20497;-64
2021/05/28 05:34:23;;;;;;;11.85;3.97;;;13.20;80.00;;;;;;5064954;28;20028;-59
2021/05/28 05:36:49;;;;;;;8.68;3.90;;;13.20;80.10;;;;;;5064702;28;20789;-59
2021/05/28 05:39:14;;;;;;;17.85;5.13;;;13.30;80.20;;;;;;5058015;28;20025;-59
2021/05/28 05:41:41;;;;;;;11.20;4.28;;;13.20;80.10;;;;;;5063419;28;20048;-59
2021/05/28 05:44:07;;;;;;;17.98;4.22;;;13.30;80.20;;;;;;5063305;28;20032;-59
2021/05/28 05:46:33;;;;;;;9.63;3.92;;;13.30;80.20;;;;;;5059786;28;20028;-59
2021/05/28 05:48:58;;;;;;;13.23;3.45;;;13.30;80.20;;;;;;5056543;28;20036;-59
2021/05/28 05:51:24;;;;;;;8.85;3.42;;;13.30;80.00;;;;;;5060440;28;20040;-70
2021/05/28 05:53:50;;;;;;;13.40;4.47;;;13.30;80.00;;;;;;5062393;28;20441;-59
2021/05/28 05:56:15;;;;;;;13.45;4.22;;;13.40;80.00;;;;;;5054409;28;20028;-59
2021/05/28 05:58:41;;;;;;;14.60;3.78;;;13.30;80.10;;;;;;5059125;28;20055;-59
2021/05/28 06:01:08;;;;;;;14.48;4.55;;;13.40;80.20;;;;;;5055796;28;20361;-59
2021/05/28 06:03:34;;;;;;;11.38;3.33;;;13.40;80.40;;;;;;5051713;28;20021;-59
2021/05/28 06:06:00;;;;;;;10.18;4.32;;;13.40;80.30;;;;;;5055432;28;20411;-59
2021/05/28 06:08:25;;;;;;;7.30;2.03;;;13.40;80.40;;;;;;5063247;28;20025;-66
2021/05/28 06:10:51;;;;;;;6.80;3.33;;;13.40;80.20;;;;;;5052728;28;20090;-59
2021/05/28 06:13:17;;;;;;;12.52;3.00;;;13.40;80.40;;;;;;5056436;28;20024;-60
2021/05/28 06:15:42;;;;;;;4.95;2.55;;;13.40;80.60;;;;;;5062467;28;20437;-60
2021/05/28 06:18:08;;;;;;;9.40;4.80;;;13.30;80.60;;;;;;5060991;28;20062;-66
2021/05/28 06:20:34;;;;;;;15.45;4.93;;;13.40;81.00;;;;;;5054097;28;20031;-60
2021/05/28 06:23:00;;;;;;;12.70;4.22;;;13.40;81.10;;;;;;5058462;28;20484;-59
2021/05/28 06:25:26;;;;;;;17.85;6.57;;;13.40;81.10;;;;;;5061923;28;20024;-67
2021/05/28 06:27:52;;;;;;;14.15;5.10;;;13.40;81.50;;;;;;5057687;28;20441;-59
2021/05/28 06:30:18;;;;;;;14.10;5.07;;;13.50;81.50;;;;;;5062747;28;20072;-59
2021/05/28 06:32:44;;;;;;;11.07;4.70;;;13.50;81.40;;;;;;5053766;28;20025;-59
2021/05/28 06:35:10;;;;;;;13.60;7.03;;;13.50;81.40;;;;;;5052869;28;20029;-59
2021/05/28 06:37:36;;;;;;;8.77;3.83;;;13.50;81.90;;;;;;5061758;28;20032;-59
2021/05/28 06:40:03;;;;;;;13.77;4.78;;;13.60;81.80;;;;;;5058946;28;20029;-59
2021/05/28 06:42:29;;;;;;;12.05;5.00;;;13.60;81.70;;;;;;5051714;28;20029;-61
2021/05/28 06:44:55;;;;;;;21.05;6.68;;;13.70;81.80;;;;;;5060330;28;20032;-60
2021/05/28 06:47:20;;;;;;;15.27;5.25;;;13.80;81.90;;;;;;5065486;28;20027;-59
2021/05/28 06:49:46;;;;;;;22.38;5.90;;;13.80;82.00;;;;;;5058379;28;20124;-59
2021/05/28 06:52:12;;;;;;;15.40;5.18;;;13.80;82.50;;;;;;5053569;28;20032;-59
2021/05/28 06:54:38;;;;;;;26.75;5.10;;;13.90;82.80;;;;;;5066959;28;20070;-59
2021/05/28 06:57:04;;;;;;;14.27;4.38;;;14.00;82.80;;;;;;5071657;28;20154;-60
2021/05/28 06:59:30;;;;;;;9.90;2.75;;;14.00;82.90;;;;;;5055201;28;20020;-60
2021/05/28 07:01:56;;;;;;;14.75;3.40;;;14.10;82.70;;;;;;5060120;28;20037;-59
2021/05/28 07:04:22;;;;;;;7.72;3.47;;;14.20;82.30;;;;;;5057505;28;20494;-59
2021/05/28 07:06:48;;;;;;;6.70;2.45;;;14.20;82.40;;;;;;5066749;28;20020;-59
2021/05/28 07:09:13;;;;;;;10.45;3.28;;;14.30;82.00;;;;;;5063601;28;20476;-59
2021/05/28 07:11:39;;;;;;;8.82;3.15;;;14.30;81.60;;;;;;5054373;28;20085;-59
2021/05/28 07:14:05;;;;;;;9.18;2.55;;;14.40;81.60;;;;;;5069868;28;20036;-59
2021/05/28 07:16:31;;;;;;;10.43;2.40;;;14.40;81.40;;;;;;5060030;28;20040;-59
2021/05/28 07:18:56;;;;;;;6.25;2.30;;;14.50;81.50;;;;;;5065432;28;20029;-59
2021/05/28 07:21:24;;;;;;;8.32;2.85;;;14.50;81.40;;;;;;5052603;28;20021;-59
2021/05/28 07:23:49;;;;;;;9.45;2.70;;;14.60;80.90;;;;;;5064600;28;20052;-59
2021/05/28 07:26:15;;;;;;;5.32;2.33;;;14.60;80.70;;;;;;5064417;28;20029;-59
2021/05/28 07:28:41;;;;;;;7.95;3.10;;;14.60;80.60;;;;;;5065767;28;20028;-59
2021/05/28 07:31:07;;;;;;;6.10;2.42;;;14.60;80.30;;;;;;5054467;28;20048;-59
2021/05/28 07:33:33;;;;;;;8.50;2.80;;;14.60;80.20;;;;;;5054991;28;20017;-59
2021/05/28 07:35:58;;;;;;;9.68;2.88;;;14.70;80.20;;;;;;5055387;28;20441;-59
2021/05/28 07:38:24;;;;;;;8.00;3.22;;;14.70;80.20;;;;;;5064428;28;20506;-60
2021/05/28 07:40:50;;;;;;;6.22;2.30;;;14.80;80.30;;;;;;5067514;28;20044;-60
2021/05/28 07:43:15;;;;;;;7.63;2.10;;;14.80;80.00;;;;;;5070130;28;20162;-59
2021/05/28 07:45:42;;;;;;;8.93;2.40;;;14.80;80.00;;;;;;5068016;28;20039;-59
2021/05/28 07:48:08;;;;;;;6.13;1.88;;;14.80;79.70;;;;;;5064858;28;20025;-61
2021/05/28 07:50:46;;;;;;;7.03;2.00;;;14.90;79.80;;;;;;5054473;28;20051;-61
2021/05/28 07:53:17;;;;;;;11.13;2.47;;;14.90;79.60;;;;;;5062164;28;20059;-60
2021/05/28 07:55:43;;;;;;;5.72;2.30;;;14.90;79.70;;;;;;5051947;28;20029;-62
2021/05/28 07:58:09;;;;;;;6.75;2.40;;;14.90;79.80;;;;;;5066148;28;20028;-61
2021/05/28 08:00:35;;;;;;;7.25;2.53;;;15.00;80.20;;;;;;5063073;28;20467;-61
2021/05/28 08:03:01;;;;;;;6.38;1.98;;;15.00;80.00;;;;;;5061980;28;20108;-61
2021/05/28 08:05:28;;;;;;;9.77;2.88;;;15.00;79.90;;;;;;5071201;28;20128;-61
2021/05/28 08:07:55;;;;;;;4.43;2.05;;;15.00;80.10;;;;;;5064483;28;20024;-60
2021/05/28 08:10:22;;;;;;;9.02;2.00;;;15.10;79.80;;;;;;5063545;28;20116;-60
2021/05/28 08:12:49;;;;;;;10.02;2.53;;;15.10;79.60;;;;;;5062905;28;20123;-60
2021/05/28 08:15:20;;;;;;;8.07;2.28;;;15.20;79.10;;;;;;5072427;28;20443;-60
2021/05/28 08:17:46;;;;;;;5.28;2.00;;;15.10;78.30;;;;;;5054635;28;20061;-60
2021/05/28 08:20:13;;;;;;;3.13;1.75;;;15.20;78.30;;;;;;5055501;28;20029;-60
2021/05/28 08:22:39;;;;;;;7.78;3.00;;;15.20;78.20;;;;;;5074400;28;20024;-60
2021/05/28 08:25:06;;;;;;;7.18;2.30;;;15.20;78.20;;;;;;5069177;28;20491;-60
2021/05/28 08:27:32;;;;;;;8.23;2.35;;;15.30;77.80;;;;;;5069222;28;20056;-59
2021/05/28 08:29:57;;;;;;;5.43;2.55;;;15.20;78.10;;;;;;5060162;28;20064;-59
2021/05/28 08:32:23;;;;;;;8.27;2.35;;;15.30;78.50;;;;;;5063095;28;20036;-64
2021/05/28 08:34:49;;;;;;;9.38;2.72;;;15.30;78.20;;;;;;5061529;28;20049;-60
2021/05/28 08:37:14;;;;;;;5.15;2.63;;;15.40;78.50;;;;;;5058296;28;20052;-60
2021/05/28 08:39:40;;;;;;;5.68;2.50;;;15.40;78.50;;;;;;5059695;28;20025;-60
2021/05/28 08:42:08;;;;;;;9.93;2.80;;;15.40;77.90;;;;;;5062707;28;20037;-60
2021/05/28 08:44:35;;;;;;;10.82;3.33;;;15.40;78.20;;;;;;5065129;28;20624;-61
2021/05/28 08:47:01;;;;;;;6.10;2.08;;;15.50;78.40;;;;;;5064609;28;20032;-62
2021/05/28 08:49:27;;;;;;;7.95;2.80;;;15.60;77.50;;;;;;5072515;28;20036;-59
2021/05/28 08:51:55;;;;;;;5.18;2.42;;;15.60;77.70;;;;;;5073374;28;20036;-59
2021/05/28 08:54:20;;;;;;;4.72;2.40;;;15.60;77.40;;;;;;5063005;28;20029;-60
2021/05/28 08:56:48;;;;;;;16.58;2.53;;;15.60;76.80;;;;;;5064151;28;20393;-60
2021/05/28 08:59:14;;;;;;;4.32;2.17;;;15.70;77.10;;;;;;5061976;28;20021;-60
2021/05/28 09:01:46;;;;;;;3.95;1.98;;;15.70;76.80;;;;;;5062772;28;20042;-62
2021/05/28 09:04:12;;;;;;;5.15;2.15;;;15.70;76.90;;;;;;5059249;28;20021;-61
2021/05/28 09:06:43;;;;;;;2.58;1.80;;;15.70;76.70;;;;;;5057394;28;20562;-62
2021/05/28 09:09:19;;;;;;;3.15;1.42;;;15.70;76.20;;;;;;5065863;28;20032;-62
2021/05/28 09:11:58;;;;;;;5.88;2.10;;;15.80;76.30;;;;;;5073154;28;20452;-60
2021/05/28 09:14:40;;;;;;;5.88;2.50;;;15.80;76.50;;;;;;5073352;28;20443;-59
2021/05/28 09:17:08;;;;;;;4.22;2.25;;;15.80;76.30;;;;;;5057022;28;20025;-60
2021/05/28 09:19:35;;;;;;;4.15;2.08;;;15.90;76.10;;;;;;5056103;28;20036;-59
2021/05/28 09:22:04;;;;;;;6.75;2.03;;;15.90;75.70;;;;;;5069184;28;20025;-59
2021/05/28 09:24:36;;;;;;;5.70;2.22;;;16.00;75.90;;;;;;5060079;28;20024;-59
2021/05/28 09:27:29;;;;;;;4.85;2.28;;;16.00;75.80;;;;;;5068922;28;20362;-59
2021/05/28 09:30:06;;;;;;;4.32;2.20;;;16.00;75.10;;;;;;5061170;28;20131;-59
2021/05/28 09:32:34;;;;;;;4.78;2.10;;;16.00;75.90;;;;;;5058075;28;20063;-63
2021/05/28 09:35:00;;;;;;;5.10;2.60;;;16.00;76.80;;;;;;5065118;28;20488;-63
2021/05/28 09:37:38;;;;;;;6.95;2.58;;;16.10;77.00;;;;;;5069130;28;20177;-62
2021/05/28 09:40:05;;;;;;;6.22;2.08;;;16.10;76.70;;;;;;5060095;28;20036;-62
2021/05/28 09:42:45;;;;;;;4.68;1.95;;;16.10;75.90;;;;;;5067952;28;20035;-63
2021/05/28 09:45:34;;;;;;;3.75;2.20;;;16.10;75.10;;;;;;5069606;28;20027;-62
2021/05/28 09:48:04;;;;;;;4.53;1.85;;;16.20;75.10;;;;;;5070216;28;20032;-61
2021/05/28 09:50:34;;;;;;;5.18;2.35;;;16.20;75.40;;;;;;5058074;28;20469;-62
2021/05/28 09:53:05;;;;;;;4.57;2.00;;;16.20;75.70;;;;;;5063727;28;20028;-60
2021/05/28 09:55:32;;;;;;;5.00;2.45;;;16.30;74.70;;;;;;5069893;28;20028;-60
2021/05/28 09:57:58;;;;;;;2.63;1.90;;;16.30;74.40;;;;;;5059065;28;20100;-60
2021/05/28 10:00:24;;;;;;;4.63;1.85;;;16.40;74.00;;;;;;5063791;28;20755;-61
2021/05/28 10:03:08;;;;;;;2.92;2.08;;;16.40;73.80;;;;;;5065969;28;20028;-61
2021/05/28 10:05:37;;;;;;;4.47;2.10;;;16.40;74.00;;;;;;5064097;28;20025;-62
2021/05/28 10:08:08;;;;;;;3.65;1.95;;;16.40;73.70;;;;;;5064912;28;20045;-62
2021/05/28 10:10:35;;;;;;;4.25;1.85;;;16.50;73.80;;;;;;5068676;28;20043;-60
2021/05/28 10:13:09;;;;;;;4.50;2.55;;;16.60;72.40;;;;;;5053401;28;20037;-60
2021/05/28 10:15:37;;;;;;;3.55;2.50;;;16.60;72.20;;;;;;5051877;28;20388;-60
2021/05/28 10:18:03;;;;;;;4.90;2.53;;;16.60;72.80;;;;;;5052629;28;20033;-61
2021/05/28 10:20:29;;;;;;;3.42;1.83;;;16.70;73.00;;;;;;5067107;28;20044;-59
2021/05/28 10:22:55;;;;;;;4.47;2.58;;;16.70;73.10;;;;;;5053216;28;20112;-60
2021/05/28 10:25:23;;;;;;;5.53;2.60;;;16.80;73.20;;;;;;5066904;28;20450;-60
2021/05/28 10:28:00;;;;;;;3.72;2.70;;;16.80;73.40;;;;;;5069906;28;20095;-60
2021/05/28 10:30:28;;;;;;;3.30;2.20;;;16.90;73.20;;;;;;5072288;28;20123;-60
2021/05/28 10:33:17;;;;;;;4.40;1.98;;;16.80;73.80;;;;;;5067814;28;20440;-61
2021/05/28 10:35:47;;;;;;;6.30;2.58;;;16.90;73.90;;;;;;5059227;28;20023;-60
2021/05/28 10:38:33;;;;;;;6.82;2.65;;;16.90;73.60;;;;;;5054601;28;20060;-60
2021/05/28 10:41:05;;;;;;;6.25;2.50;;;16.90;73.00;;;;;;5065239;28;20028;-60
2021/05/28 10:43:36;;;;;;;6.18;2.85;;;17.00;72.80;;;;;;5065199;28;20029;-61
2021/05/28 10:46:11;;;;;;;3.65;2.05;;;17.00;71.50;;;;;;5055545;28;20024;-60
2021/05/28 10:48:37;;;;;;;4.53;3.00;;;17.10;72.30;;;;;;5058340;28;20037;-61
2021/05/28 10:51:04;;;;;;;5.35;3.03;;;17.10;73.60;;;;;;5055771;28;20483;-61
2021/05/28 10:53:29;;;;;;;2.20;1.98;;;17.20;73.90;;;;;;5052323;28;20020;-61
2021/05/28 10:56:18;;;;;;;5.00;2.33;;;17.20;71.70;;;;;;5056559;28;20068;-61
2021/05/28 10:58:59;;;;;;;4.45;2.17;;;17.20;71.80;;;;;;5053862;28;20574;-61
2021/05/28 11:01:52;;;;;;;4.03;2.13;;;17.20;72.50;;;;;;5061908;28;20491;-61
2021/05/28 11:04:40;;;;;;;5.22;2.25;;;17.30;73.80;;;;;;5054248;28;20043;-61
2021/05/28 11:07:05;;;;;;;2.13;1.80;;;17.30;73.20;;;;;;5050822;28;20024;-61
2021/05/28 11:09:39;;;;;;;3.33;2.08;;;17.30;72.60;;;;;;5057525;28;20041;-60
2021/05/28 11:12:15;;;;;;;3.25;1.50;;;17.40;72.70;;;;;;5055355;28;20040;-60
2021/05/28 11:15:03;;;;;;;2.35;1.70;;;17.40;72.30;;;;;;5051436;28;20033;-59
2021/05/28 11:17:29;;;;;;;3.45;1.90;;;17.50;71.10;;;;;;5054932;28;20037;-59
2021/05/28 11:19:57;;;;;;;6.30;2.42;;;17.50;71.90;;;;;;5054060;28;20075;-59
2021/05/28 11:22:29;;;;;;;3.33;2.03;;;17.60;71.90;;;;;;5056224;28;20032;-59
2021/05/28 11:25:01;;;;;;;3.75;1.80;;;17.70;71.40;;;;;;5054458;28;20028;-63
2021/05/28 11:27:27;;;;;;;4.18;2.10;;;17.70;72.00;;;;;;5057030;28;20476;-60
2021/05/28 11:30:15;;;;;;;2.65;1.77;;;17.70;70.90;;;;;;5070191;28;20048;-60
2021/05/28 11:32:44;;;;;;;2.63;1.70;;;17.70;70.90;;;;;;5052481;28;20021;-60
2021/05/28 11:35:14;;;;;;;3.83;2.08;;;17.70;70.90;;;;;;5054671;28;20025;-62
2021/05/28 11:38:01;;;;;;;3.00;2.05;;;17.80;70.70;;;;;;5061290;28;20357;-62
2021/05/28 11:40:44;;;;;;;4.15;2.50;;;17.80;70.60;;;;;;5053076;28;20492;-61
2021/05/28 11:43:12;;;;;;;4.82;2.50;;;17.90;71.00;;;;;;5051975;28;20104;-60
2021/05/28 11:45:47;;;;;;;3.95;1.85;;;17.90;71.20;;;;;;5054825;28;20477;-61
2021/05/28 11:48:17;;;;;;;5.88;2.45;;;17.90;71.20;;;;;;5057688;28;20033;-60
2021/05/28 11:50:49;;;;;;;4.22;2.30;;;18.00;71.90;;;;;;5056667;28;20499;-61
2021/05/28 11:53:15;;;;;;;3.35;2.03;;;18.00;71.90;;;;;;5058615;28;20029;-61
2021/05/28 11:55:50;;;;;;;3.75;2.13;;;18.00;72.50;;;;;;5058353;28;20032;-62
2021/05/28 11:58:19;;;;;;;3.88;1.70;;;18.10;72.00;;;;;;5058581;28;20025;-62
2021/05/28 12:00:51;;;;;;;10.95;2.78;;;18.10;71.10;;;;;;5062356;28;20029;-61
2021/05/28 12:03:18;;;;;;;4.82;2.28;;;18.10;72.40;;;;;;5064341;28;20395;-63
2021/05/28 12:05:46;;;;;;;5.55;2.15;;;18.10;73.90;;;;;;5058099;28;20438;-63
2021/05/28 12:08:16;;;;;;;5.55;3.15;;;18.20;73.50;;;;;;5058472;28;20449;-62
2021/05/28 12:10:48;;;;;;;6.70;2.70;;;18.20;73.20;;;;;;5069677;28;20033;-62
2021/05/28 12:13:22;;;;;;;5.43;2.13;;;18.20;71.70;;;;;;5061284;28;20378;-60
2021/05/28 12:15:47;;;;;;;;;;;18.30;70.30;;;;;;5060809;28;20028;-60
2021/05/28 12:18:27;;;;;;;6.22;2.78;;;18.30;70.50;;;;;;5061631;28;20366;-60
2021/05/28 12:20:57;;;;;;;6.78;2.88;;;18.30;70.60;;;;;;5065266;28;20424;-60
2021/05/28 12:23:26;;;;;;;5.18;2.55;;;18.30;71.60;;;;;;5065056;28;20025;-60
2021/05/28 12:25:56;;;;;;;7.68;2.60;;;18.30;70.60;;;;;;5063433;28;20044;-60
2021/05/28 12:28:25;;;;;;;5.97;2.45;;;18.40;72.90;;;;;;5063187;28;20494;-60
2021/05/28 12:30:58;;;;;;;8.98;2.85;;;18.40;72.60;;;;;;5064644;28;20123;-59
2021/05/28 12:33:27;;;;;;;4.90;2.75;;;18.40;72.60;;;;;;5054600;28;20018;-60
2021/05/28 12:35:55;;;;;;;6.55;3.20;;;18.40;72.00;;;;;;5068347;28;20037;-60
2021/05/28 12:38:31;;;;;;;7.97;3.17;;;18.40;75.20;;;;;;5070958;28;20033;-60
2021/05/28 12:40:57;;;;;;;8.60;3.08;;;18.50;73.70;;;;;;5064234;28;20038;-62
2021/05/28 12:43:27;;;;;;;7.03;3.40;;;18.50;72.80;;;;;;5068023;28;20038;-60
2021/05/28 12:45:54;;;;;;;6.43;2.80;;;18.60;73.10;;;;;;5062428;28;20024;-62